Latest Weather Observations for Outer Harbor (Black Pole)

IDS60901

Issued at 11:31 am CST Saturday 2 July 2016 (issued every 10 minutes, with the page automatically refreshed every 10 minutes)

About weather observations | Map of Adelaide area stations | Latest observations for Adelaide area | Other Formats
Station Details ID: 023052 Name: BLACK POLE Lat: -34.73 Lon: 138.47 Height: 6.27 m
Data from the previous 72 hours. | See also: Recent months for locations in South Australia
Date/Time
CST
Temp
°C
App
Temp
°C
Dew
Point
°C
Rel
Hum
%
Delta-T
°C
Wind Press
QNH
hPa
Press
MSL
hPa
Rain since
9am
mm
Dir  Spd
km/h
Gust
km/h
Spd
kts
Gust
kts
02/11:30am - - - - - NW 19 24 10 13 - - -
02/11:00am - - - - - NNW 17 22 9 12 - - -
02/10:30am - - - - - NW 20 28 11 15 - - -
02/10:00am - - - - - NW 20 22 11 12 - - -
02/09:30am - - - - - NNW 20 24 11 13 - - -
02/09:00am - - - - - NW 22 28 12 15 - - -
02/08:30am - - - - - NW 22 28 12 15 - - -
02/08:00am - - - - - WNW 28 33 15 18 - - -
02/07:30am - - - - - WNW 26 33 14 18 - - -
02/07:00am - - - - - WNW 26 32 14 17 - - -
02/06:30am - - - - - NNW 20 24 11 13 - - -
02/06:00am - - - - - NNW 19 20 10 11 - - -
02/05:30am - - - - - NNW 17 20 9 11 - - -
02/05:00am - - - - - NNW 17 20 9 11 - - -
02/04:30am - - - - - NNW 19 22 10 12 - - -
02/04:00am - - - - - NW 17 20 9 11 - - -
02/03:30am - - - - - WNW 20 24 11 13 - - -
02/03:00am - - - - - NW 19 20 10 11 - - -
02/02:30am - - - - - WNW 15 20 8 11 - - -
02/02:00am - - - - - WNW 20 26 11 14 - - -
02/01:30am - - - - - WNW 19 22 10 12 - - -
02/01:00am - - - - - WNW 20 26 11 14 - - -
02/12:30am - - - - - NW 17 20 9 11 - - -
02/12:00am - - - - - NW 17 19 9 10 - - -
 
Date/Time
CST
Temp
°C
App
Temp
°C
Dew
Point
°C
Rel
Hum
%
Delta-T
°C
Wind Press
QNH
hPa
Press
MSL
hPa
Rain since
9am
mm
Dir  Spd
km/h
Gust
km/h
Spd
kts
Gust
kts
01/11:30pm - - - - - NW 17 24 9 13 - - -
01/11:00pm - - - - - WNW 20 24 11 13 - - -
01/10:30pm - - - - - WNW 17 20 9 11 - - -
01/10:00pm - - - - - WNW 20 30 11 16 - - -
01/09:30pm - - - - - NW 17 19 9 10 - - -
01/09:00pm - - - - - WNW 20 26 11 14 - - -
01/08:30pm - - - - - W 22 28 12 15 - - -
01/08:00pm - - - - - WNW 22 28 12 15 - - -
01/07:30pm - - - - - WNW 19 22 10 12 - - -
01/07:00pm - - - - - NW 22 26 12 14 - - -
01/06:30pm - - - - - WNW 22 26 12 14 - - -
01/06:00pm - - - - - WNW 22 28 12 15 - - -
01/05:30pm - - - - - WNW 24 28 13 15 - - -
01/05:00pm - - - - - W 24 28 13 15 - - -
01/04:30pm - - - - - WNW 15 17 8 9 - - -
01/04:00pm - - - - - WNW 17 19 9 10 - - -
01/03:30pm - - - - - W 13 17 7 9 - - -
01/03:00pm - - - - - WNW 9 15 5 8 - - -
01/02:30pm - - - - - NW 9 9 5 5 - - -
01/02:00pm - - - - - NW 9 9 5 5 - - -
01/01:30pm - - - - - NW 9 11 5 6 - - -
01/01:00pm - - - - - WNW 9 11 5 6 - - -
01/12:30pm - - - - - NW 15 17 8 9 - - -
01/12:00pm - - - - - NW 17 20 9 11 - - -
01/11:30am - - - - - NW 17 19 9 10 - - -
01/11:00am - - - - - WNW 13 15 7 8 - - -
01/10:30am - - - - - W 15 17 8 9 - - -
01/10:00am - - - - - W 15 17 8 9 - - -
01/09:30am - - - - - W 15 20 8 11 - - -
01/09:00am - - - - - WSW 15 17 8 9 - - -
01/08:30am - - - - - WSW 17 19 9 10 - - -
01/08:00am - - - - - WSW 19 24 10 13 - - -
01/07:30am - - - - - WSW 20 24 11 13 - - -
01/07:00am - - - - - WSW 24 28 13 15 - - -
01/06:30am - - - - - WSW 19 24 10 13 - - -
01/06:00am - - - - - WSW 17 20 9 11 - - -
01/05:30am - - - - - WSW 19 20 10 11 - - -
01/05:00am - - - - - WSW 22 26 12 14 - - -
01/04:30am - - - - - WSW 22 28 12 15 - - -
01/04:00am - - - - - WSW 20 28 11 15 - - -
01/03:30am - - - - - WSW 22 26 12 14 - - -
01/03:00am - - - - - WSW 20 26 11 14 - - -
01/02:30am - - - - - WSW 22 26 12 14 - - -
01/02:00am - - - - - WSW 22 26 12 14 - - -
01/01:30am - - - - - WSW 26 30 14 16 - - -
01/01:00am - - - - - SW 28 33 15 18 - - -
01/12:30am - - - - - SW 28 33 15 18 - - -
01/12:00am - - - - - SW 30 35 16 19 - - -
 
Date/Time
CST
Temp
°C
App
Temp
°C
Dew
Point
°C
Rel
Hum
%
Delta-T
°C
Wind Press
QNH
hPa
Press
MSL
hPa
Rain since
9am
mm
Dir  Spd
km/h
Gust
km/h
Spd
kts
Gust
kts
30/11:30pm - - - - - SW 33 39 18 21 - - -
30/11:00pm - - - - - SW 28 35 15 19 - - -
30/10:30pm - - - - - SW 30 35 16 19 - - -
30/10:00pm - - - - - SW 33 39 18 21 - - -
30/09:30pm - - - - - SW 33 41 18 22 - - -
30/09:00pm - - - - - SW 26 32 14 17 - - -
30/08:30pm - - - - - WSW 33 43 18 23 - - -
30/08:00pm - - - - - SW 37 44 20 24 - - -
30/07:30pm - - - - - SW 37 43 20 23 - - -
30/07:00pm - - - - - SW 33 43 18 23 - - -
30/06:30pm - - - - - SW 39 46 21 25 - - -
30/06:00pm - - - - - SW 41 48 22 26 - - -
30/05:30pm - - - - - SW 41 50 22 27 - - -
30/05:00pm - - - - - WSW 33 39 18 21 - - -
30/04:30pm - - - - - WSW 33 41 18 22 - - -
30/04:00pm - - - - - WSW 37 44 20 24 - - -
30/03:30pm - - - - - SW 43 54 23 29 - - -
30/03:00pm - - - - - SW 48 63 26 34 - - -
30/02:30pm - - - - - WSW 43 57 23 31 - - -
30/02:00pm - - - - - WSW 44 56 24 30 - - -
30/01:30pm - - - - - SW 43 54 23 29 - - -
30/01:00pm - - - - - WSW 41 50 22 27 - - -
30/12:30pm - - - - - WSW 35 46 19 25 - - -
30/12:00pm - - - - - WSW 35 46 19 25 - - -
30/11:30am - - - - - W 32 46 17 25 - - -
30/11:00am - - - - - WNW 32 41 17 22 - - -
30/10:30am - - - - - WNW 26 32 14 17 - - -
30/10:00am - - - - - NW 32 39 17 21 - - -
30/09:30am - - - - - NW 33 44 18 24 - - -
30/09:00am - - - - - NNW 37 46 20 25 - - -
30/08:30am - - - - - NNW 35 43 19 23 - - -
30/08:00am - - - - - NNW 41 50 22 27 - - -
30/07:30am - - - - - NNW 39 46 21 25 - - -
30/07:00am - - - - - NNW 37 44 20 24 - - -
30/06:30am - - - - - NNW 39 48 21 26 - - -
30/06:00am - - - - - NNW 30 35 16 19 - - -
30/05:30am - - - - - NNW 37 46 20 25 - - -
30/05:00am - - - - - NNW 39 46 21 25 - - -
30/04:30am - - - - - NNW 41 48 22 26 - - -
30/04:00am - - - - - NNW 39 48 21 26 - - -
30/03:30am - - - - - NNW 39 46 21 25 - - -
30/03:00am - - - - - NNW 39 54 21 29 - - -
30/02:30am - - - - - NNW 39 48 21 26 - - -
30/02:00am - - - - - NNW 35 44 19 24 - - -
30/01:30am - - - - - NNW 32 37 17 20 - - -
30/01:00am - - - - - NNW 35 43 19 23 - - -
30/12:30am - - - - - N 39 48 21 26 - - -
30/12:00am - - - - - N 39 50 21 27 - - -
 
Date/Time
CST
Temp
°C
App
Temp
°C
Dew
Point
°C
Rel
Hum
%
Delta-T
°C
Wind Press
QNH
hPa
Press
MSL
hPa
Rain since
9am
mm
Dir  Spd
km/h
Gust
km/h
Spd
kts
Gust
kts
29/11:30pm - - - - - N 43 50 23 27 - - -
29/11:00pm - - - - - N 39 48 21 26 - - -
29/10:30pm - - - - - N 37 44 20 24 - - -
29/10:00pm - - - - - N 33 43 18 23 - - -
29/09:30pm - - - - - N 32 39 17 21 - - -
29/09:00pm - - - - - N 32 37 17 20 - - -
29/08:30pm - - - - - N 28 35 15 19 - - -
29/08:00pm - - - - - NNE 28 33 15 18 - - -
29/07:30pm - - - - - N 32 37 17 20 - - -
29/07:00pm - - - - - N 28 35 15 19 - - -
29/06:30pm - - - - - N 30 35 16 19 - - -
29/06:00pm - - - - - N 30 35 16 19 - - -
29/05:30pm - - - - - NNW 33 41 18 22 - - -
29/05:00pm - - - - - NNW 39 48 21 26 - - -
29/04:30pm - - - - - NNW 44 57 24 31 - - -
29/04:00pm - - - - - NNW 41 56 22 30 - - -
29/03:30pm - - - - - N 39 50 21 27 - - -
29/03:00pm - - - - - NNW 41 54 22 29 - - -
29/02:30pm - - - - - N 41 52 22 28 - - -
29/02:00pm - - - - - N 39 48 21 26 - - -
29/01:30pm - - - - - N 32 37 17 20 - - -
29/01:00pm - - - - - N 28 35 15 19 - - -
29/12:30pm - - - - - N 26 33 14 18 - - -
29/12:00pm - - - - - N 26 33 14 18 - - -

Latest Capital City Observations: Canberra | Sydney | Melbourne | Brisbane | Adelaide | Perth | Hobart | Darwin

Other Formats:

Comma delimited format used in spreadsheet applications
http://www.bom.gov.au/fwo/IDS60901/IDS60901.95675.axf

JavaScript Object Notation format (JSON) in row-major order
http://www.bom.gov.au/fwo/IDS60901/IDS60901.95675.json